createdAt,value
2022-11-26T08:26:14.264Z,43.45
2022-11-26T08:31:15.736Z,41.33
2022-11-26T08:36:19.803Z,46.10
2022-11-26T08:41:24.807Z,48.42
2022-11-26T08:51:35.415Z,38.08
2022-11-26T08:56:40.451Z,37.83
2022-11-26T09:01:44.588Z,39.67
2022-11-26T09:06:49.036Z,38.03
2022-11-26T09:11:58.676Z,36.33
2022-11-26T09:17:02.663Z,35.25
2022-11-26T09:22:06.790Z,42.10
2022-11-26T09:27:12.925Z,37.00
2022-11-26T09:32:29.432Z,30.90
2022-11-26T09:37:37.266Z,41.22
2022-11-26T09:42:54.370Z,32.95
2022-11-26T09:48:14.779Z,41.67
2022-11-26T09:53:22.669Z,30.15
2022-11-26T09:58:32.915Z,29.58
2022-11-26T10:03:39.322Z,40.55
2022-11-26T10:09:19.389Z,38.65
2022-11-26T10:14:41.683Z,35.42
2022-11-26T10:19:59.522Z,39.85
2022-11-26T10:25:05.443Z,41.90
2022-11-26T10:30:20.514Z,37.58
2022-11-26T10:35:27.346Z,42.92
2022-11-26T10:40:33.217Z,37.05
2022-11-26T10:45:41.311Z,34.35
2022-11-26T10:51:00.459Z,36.17
2022-11-26T10:56:07.630Z,31.40
2022-11-26T11:01:15.222Z,33.28
2022-11-26T11:06:38.512Z,34.03
2022-11-26T11:11:42.158Z,37.78
2022-11-26T11:16:47.306Z,36.63
2022-11-26T11:21:51.289Z,25.80
2022-11-26T11:26:58.627Z,33.35
2022-11-26T11:32:06.478Z,30.67
2022-11-26T11:37:17.598Z,28.85
2022-11-26T11:42:28.206Z,27.52
2022-11-26T11:47:38.741Z,35.40
2022-11-26T11:52:54.042Z,24.33
2022-11-26T11:58:38.116Z,17.58
2022-11-26T12:04:09.342Z,20.25
2022-11-26T12:09:25.354Z,19.98
2022-11-26T12:14:37.158Z,15.32
2022-11-26T12:19:51.616Z,23.15
2022-11-26T12:25:00.167Z,21.63
2022-11-26T12:30:08.516Z,21.52
2022-11-26T12:35:18.312Z,29.70
2022-11-26T12:40:33.548Z,18.50
2022-11-26T12:45:45.976Z,17.85
2022-11-26T12:50:55.828Z,24.95
2022-11-26T12:56:09.381Z,30.50
2022-11-26T13:01:13.321Z,22.83
2022-11-26T13:06:32.350Z,20.70
2022-11-26T13:11:47.255Z,26.77
2022-11-26T13:22:43.133Z,25.73
2022-11-26T13:27:59.385Z,23.33
2022-11-26T13:33:32.643Z,29.13
2022-11-26T13:38:50.326Z,32.63
2022-11-26T13:44:34.010Z,40.70
2022-11-26T13:49:46.769Z,51.85
2022-11-26T13:54:58.426Z,35.53
2022-11-26T14:00:02.432Z,36.38
2022-11-26T14:05:13.558Z,31.95
2022-11-26T14:10:46.224Z,34.97
2022-11-26T14:15:59.084Z,28.45
2022-11-26T14:21:15.801Z,37.70
2022-11-26T14:26:28.909Z,39.42
2022-11-26T14:31:36.669Z,35.05
2022-11-26T14:36:57.652Z,40.25
2022-11-26T14:42:06.538Z,26.70
2022-11-26T14:47:19.920Z,30.02
2022-11-26T14:52:29.248Z,28.10
2022-11-26T14:57:41.944Z,33.60
2022-11-26T15:02:46.862Z,35.83
2022-11-26T15:13:11.117Z,39.08
2022-11-26T15:18:17.603Z,40.85
2022-11-26T15:23:28.048Z,33.65
2022-11-26T15:28:40.998Z,34.40
2022-11-26T15:33:45.854Z,46.13
2022-11-26T15:39:04.016Z,38.03
2022-11-26T15:44:22.186Z,53.60
2022-11-26T15:49:30.068Z,42.88
2022-11-26T15:55:04.792Z,33.25
2022-11-26T16:00:10.078Z,46.33
2022-11-26T16:05:24.130Z,50.00
2022-11-26T16:10:31.193Z,43.73
2022-11-26T16:15:37.119Z,41.22
2022-11-26T16:20:41.028Z,47.53
2022-11-26T16:26:12.952Z,47.75
2022-11-26T16:31:19.315Z,38.90
2022-11-26T16:36:29.450Z,49.25
2022-11-26T16:41:33.117Z,48.03
2022-11-26T16:46:41.059Z,38.60
2022-11-26T16:51:47.782Z,50.35
2022-11-26T16:56:54.827Z,38.38
2022-11-26T17:02:01.279Z,46.95
2022-11-26T17:12:16.116Z,43.95
2022-11-26T17:17:25.556Z,57.58
2022-11-26T17:22:29.665Z,49.72
2022-11-26T17:27:34.350Z,44.83
2022-11-26T17:32:42.495Z,44.92
2022-11-26T17:37:49.350Z,42.33
2022-11-26T17:42:54.239Z,53.05
2022-11-26T17:47:59.884Z,37.00
2022-11-26T17:53:03.807Z,37.75
2022-11-26T17:58:08.051Z,34.78
2022-11-26T18:03:13.198Z,45.80
2022-11-26T18:08:19.229Z,55.55
2022-11-26T18:13:22.935Z,48.38
2022-11-26T18:18:28.152Z,53.50
2022-11-26T18:28:35.291Z,39.35
2022-11-26T18:33:40.350Z,32.63
2022-11-26T18:43:47.467Z,43.00
2022-11-26T18:48:57.094Z,42.70
2022-11-26T18:54:01.034Z,45.83
2022-11-26T18:59:07.122Z,48.35
2022-11-26T19:04:13.186Z,51.85
2022-11-26T19:09:19.100Z,41.75
2022-11-26T19:14:22.770Z,48.15
2022-11-26T19:19:28.239Z,49.58
2022-11-26T19:24:31.921Z,63.60
2022-11-26T19:29:35.776Z,45.38
2022-11-26T19:34:41.115Z,43.58
2022-11-26T19:39:44.858Z,43.67
2022-11-26T19:44:48.697Z,51.35
2022-11-26T19:49:53.815Z,49.83
2022-11-26T19:54:59.950Z,44.80
2022-11-26T20:00:09.482Z,53.10
2022-11-26T20:05:14.643Z,48.50
2022-11-26T20:10:18.513Z,42.80
2022-11-26T20:15:23.170Z,50.50
2022-11-26T20:20:28.631Z,49.30
2022-11-26T20:25:35.211Z,47.42
2022-11-26T20:30:41.270Z,58.75
2022-11-26T20:35:47.392Z,53.55
2022-11-26T20:40:51.315Z,43.10
2022-11-26T20:46:02.362Z,52.30
2022-11-26T20:51:12.995Z,45.83
2022-11-26T20:56:41.794Z,38.10
2022-11-26T21:01:46.341Z,40.85
2022-11-26T21:06:53.507Z,37.45
2022-11-26T21:12:02.248Z,41.03
2022-11-26T21:17:06.203Z,46.20
2022-11-26T21:22:15.520Z,42.97
2022-11-26T21:27:19.279Z,38.25
2022-11-26T21:32:22.967Z,42.53
2022-11-26T21:37:29.664Z,49.60
2022-11-26T21:42:33.689Z,50.70
2022-11-26T21:47:37.974Z,45.47
2022-11-26T21:52:45.895Z,45.40
2022-11-26T21:57:49.716Z,44.60
2022-11-26T22:02:54.009Z,42.22
2022-11-26T22:07:59.328Z,60.73
2022-11-26T22:13:03.080Z,50.72
2022-11-26T22:18:18.509Z,55.83
2022-11-26T22:23:27.260Z,72.43
2022-11-26T22:28:31.203Z,78.63
2022-11-26T22:33:37.645Z,68.72
2022-11-26T22:39:07.639Z,67.57
2022-11-26T22:44:12.086Z,57.00
2022-11-26T22:49:18.868Z,57.97
2022-11-26T22:54:24.491Z,57.42
2022-11-26T22:59:28.532Z,48.90
2022-11-26T23:04:32.316Z,68.68
2022-11-26T23:09:46.409Z,56.78
2022-11-26T23:14:54.753Z,51.65
2022-11-26T23:20:03.127Z,51.38
2022-11-26T23:25:13.387Z,45.08
2022-11-26T23:30:24.495Z,50.33
2022-11-26T23:35:29.575Z,48.88
2022-11-26T23:40:38.400Z,59.67
2022-11-26T23:45:48.899Z,66.88
2022-11-26T23:50:59.038Z,84.30
2022-11-26T23:56:09.961Z,82.22
